Suhinici, Russia
Current Conditions -  °F | °C
As of 3:30 AM on Tuesday 23 Dec 2014 (Local Time) from UUBW Reporting Station
Light Snow Light Snow  
Wind Chill: 20°   Ceiling: 1300
Heat Index: 28°   Visibility: 3mi
Dew Point: 27°   Wind: 9mph
Humidity: 93%   Direction: 140°SE
Pressure: 29.29"   Gusts: NA
Location:  54.1°N, 35.35°E
Report Text: UUBW 230030Z 14004MPS 5000 -SN OVC013 M02/M03 Q0992 TEMPO 2000SN
Loading
Personal Weather Stations






























Interactive Weather Map New forecast layout! Learn more

10-Day Weather Forecast

Advertisements
Track Severe Weather on mobile